sensor_id;sensor_type;location;lat;lon;timestamp;temperature;humidity
9410;DHT22;4744;52.576;13.568;2023-12-14T00:00:32;4.00;1.00
9410;DHT22;4744;52.576;13.568;2023-12-14T00:02:59;4.00;1.00
9410;DHT22;4744;52.576;13.568;2023-12-14T00:05:26;4.00;1.00
9410;DHT22;4744;52.576;13.568;2023-12-14T00:07:53;4.00;1.00
9410;DHT22;4744;52.576;13.568;2023-12-14T00:10:21;4.00;1.00
9410;DHT22;4744;52.576;13.568;2023-12-14T00:12:48;3.90;1.00
9410;DHT22;4744;52.576;13.568;2023-12-14T00:15:16;3.90;1.00
9410;DHT22;4744;52.576;13.568;2023-12-14T00:17:43;3.90;1.00
9410;DHT22;4744;52.576;13.568;2023-12-14T00:20:10;3.90;1.00
9410;DHT22;4744;52.576;13.568;2023-12-14T00:22:37;3.90;1.00
9410;DHT22;4744;52.576;13.568;2023-12-14T00:25:05;3.90;1.00
9410;DHT22;4744;52.576;13.568;2023-12-14T00:27:33;3.90;1.00
9410;DHT22;4744;52.576;13.568;2023-12-14T00:30:00;3.80;1.00
9410;DHT22;4744;52.576;13.568;2023-12-14T00:32:27;3.80;1.00
9410;DHT22;4744;52.576;13.568;2023-12-14T00:34:54;3.80;1.00
9410;DHT22;4744;52.576;13.568;2023-12-14T00:37:21;3.80;1.00
9410;DHT22;4744;52.576;13.568;2023-12-14T00:39:48;3.80;1.00
9410;DHT22;4744;52.576;13.568;2023-12-14T00:42:15;3.80;1.00
9410;DHT22;4744;52.576;13.568;2023-12-14T00:44:43;3.70;1.00
9410;DHT22;4744;52.576;13.568;2023-12-14T00:47:10;3.70;1.00
9410;DHT22;4744;52.576;13.568;2023-12-14T00:49:37;3.70;1.00
9410;DHT22;4744;52.576;13.568;2023-12-14T00:52:05;3.70;1.00
9410;DHT22;4744;52.576;13.568;2023-12-14T00:54:31;3.70;1.00
9410;DHT22;4744;52.576;13.568;2023-12-14T00:56:58;3.70;1.00
9410;DHT22;4744;52.576;13.568;2023-12-14T00:59:25;3.70;1.00
9410;DHT22;4744;52.576;13.568;2023-12-14T01:01:54;3.70;1.00
9410;DHT22;4744;52.576;13.568;2023-12-14T01:04:21;3.70;1.00
9410;DHT22;4744;52.576;13.568;2023-12-14T01:06:47;3.70;1.00
9410;DHT22;4744;52.576;13.568;2023-12-14T01:09:14;3.70;1.00
9410;DHT22;4744;52.576;13.568;2023-12-14T01:11:41;3.70;1.00
9410;DHT22;4744;52.576;13.568;2023-12-14T01:14:08;3.70;1.00
9410;DHT22;4744;52.576;13.568;2023-12-14T01:16:35;3.70;1.00
9410;DHT22;4744;52.576;13.568;2023-12-14T01:19:03;3.70;1.00
9410;DHT22;4744;52.576;13.568;2023-12-14T01:21:31;3.70;1.00
9410;DHT22;4744;52.576;13.568;2023-12-14T01:23:58;3.70;1.00
9410;DHT22;4744;52.576;13.568;2023-12-14T01:26:26;3.70;1.00
9410;DHT22;4744;52.576;13.568;2023-12-14T01:28:53;3.70;1.00
9410;DHT22;4744;52.576;13.568;2023-12-14T01:31:20;3.70;1.00
9410;DHT22;4744;52.576;13.568;2023-12-14T01:33:48;3.60;1.00
9410;DHT22;4744;52.576;13.568;2023-12-14T01:36:21;3.60;1.00
9410;DHT22;4744;52.576;13.568;2023-12-14T01:38:48;3.60;1.00
9410;DHT22;4744;52.576;13.568;2023-12-14T01:41:15;3.60;1.00
9410;DHT22;4744;52.576;13.568;2023-12-14T01:43:42;3.60;1.00
9410;DHT22;4744;52.576;13.568;2023-12-14T01:46:09;3.60;1.00
9410;DHT22;4744;52.576;13.568;2023-12-14T01:48:36;3.50;1.00
9410;DHT22;4744;52.576;13.568;2023-12-14T01:51:03;3.50;1.00
9410;DHT22;4744;52.576;13.568;2023-12-14T01:53:32;3.50;1.00
9410;DHT22;4744;52.576;13.568;2023-12-14T01:55:59;3.50;1.00
9410;DHT22;4744;52.576;13.568;2023-12-14T01:58:25;3.50;1.00
9410;DHT22;4744;52.576;13.568;2023-12-14T02:00:57;3.50;1.00
9410;DHT22;4744;52.576;13.568;2023-12-14T02:03:25;3.50;1.00
9410;DHT22;4744;52.576;13.568;2023-12-14T02:05:52;3.50;1.00
9410;DHT22;4744;52.576;13.568;2023-12-14T02:08:19;3.50;1.00
9410;DHT22;4744;52.576;13.568;2023-12-14T02:10:47;3.50;1.00
9410;DHT22;4744;52.576;13.568;2023-12-14T02:13:14;3.50;1.00
9410;DHT22;4744;52.576;13.568;2023-12-14T02:15:41;3.50;1.00
9410;DHT22;4744;52.576;13.568;2023-12-14T02:18:08;3.50;1.00
9410;DHT22;4744;52.576;13.568;2023-12-14T02:20:35;3.50;1.00
9410;DHT22;4744;52.576;13.568;2023-12-14T02:23:03;3.40;1.00
9410;DHT22;4744;52.576;13.568;2023-12-14T02:25:30;3.40;1.00
9410;DHT22;4744;52.576;13.568;2023-12-14T02:27:57;3.40;1.00
9410;DHT22;4744;52.576;13.568;2023-12-14T02:30:24;3.40;1.00
9410;DHT22;4744;52.576;13.568;2023-12-14T02:32:50;3.40;1.00
9410;DHT22;4744;52.576;13.568;2023-12-14T02:35:17;3.40;1.00
9410;DHT22;4744;52.576;13.568;2023-12-14T02:37:44;3.40;1.00
9410;DHT22;4744;52.576;13.568;2023-12-14T02:40:13;3.30;1.00
9410;DHT22;4744;52.576;13.568;2023-12-14T02:42:40;3.30;1.00
9410;DHT22;4744;52.576;13.568;2023-12-14T02:45:08;3.30;1.00
9410;DHT22;4744;52.576;13.568;2023-12-14T02:47:35;3.30;1.00
9410;DHT22;4744;52.576;13.568;2023-12-14T02:50:02;3.30;1.00
9410;DHT22;4744;52.576;13.568;2023-12-14T02:52:29;3.30;1.00
9410;DHT22;4744;52.576;13.568;2023-12-14T02:54:56;3.30;1.00
9410;DHT22;4744;52.576;13.568;2023-12-14T02:57:24;3.30;1.00
9410;DHT22;4744;52.576;13.568;2023-12-14T02:59:52;3.30;1.00
9410;DHT22;4744;52.576;13.568;2023-12-14T03:02:19;3.30;1.00
9410;DHT22;4744;52.576;13.568;2023-12-14T03:04:45;3.30;1.00
9410;DHT22;4744;52.576;13.568;2023-12-14T03:07:12;3.30;1.00
9410;DHT22;4744;52.576;13.568;2023-12-14T03:09:40;3.30;1.00
9410;DHT22;4744;52.576;13.568;2023-12-14T03:12:09;3.30;1.00
9410;DHT22;4744;52.576;13.568;2023-12-14T03:14:38;3.30;1.00
9410;DHT22;4744;52.576;13.568;2023-12-14T03:17:06;3.30;1.00
9410;DHT22;4744;52.576;13.568;2023-12-14T03:19:38;3.30;1.00
9410;DHT22;4744;52.576;13.568;2023-12-14T03:22:05;3.20;1.00
9410;DHT22;4744;52.576;13.568;2023-12-14T03:24:32;3.20;1.00
9410;DHT22;4744;52.576;13.568;2023-12-14T03:26:59;3.30;1.00
9410;DHT22;4744;52.576;13.568;2023-12-14T03:29:27;3.20;1.00
9410;DHT22;4744;52.576;13.568;2023-12-14T03:31:54;3.20;1.00
9410;DHT22;4744;52.576;13.568;2023-12-14T03:34:21;3.20;1.00
9410;DHT22;4744;52.576;13.568;2023-12-14T03:36:48;3.20;1.00
9410;DHT22;4744;52.576;13.568;2023-12-14T03:39:15;3.20;1.00
9410;DHT22;4744;52.576;13.568;2023-12-14T03:41:43;3.20;1.00
9410;DHT22;4744;52.576;13.568;2023-12-14T03:44:10;3.20;1.00
9410;DHT22;4744;52.576;13.568;2023-12-14T03:46:37;3.20;1.00
9410;DHT22;4744;52.576;13.568;2023-12-14T03:49:05;3.20;1.00
9410;DHT22;4744;52.576;13.568;2023-12-14T03:51:32;3.20;1.00
9410;DHT22;4744;52.576;13.568;2023-12-14T03:53:59;3.20;1.00
9410;DHT22;4744;52.576;13.568;2023-12-14T03:56:26;3.30;1.00
9410;DHT22;4744;52.576;13.568;2023-12-14T03:58:53;3.30;1.00
9410;DHT22;4744;52.576;13.568;2023-12-14T04:01:20;3.30;1.00
9410;DHT22;4744;52.576;13.568;2023-12-14T04:03:48;3.30;1.00
9410;DHT22;4744;52.576;13.568;2023-12-14T04:06:16;3.20;1.00
9410;DHT22;4744;52.576;13.568;2023-12-14T04:08:43;3.30;1.00
9410;DHT22;4744;52.576;13.568;2023-12-14T04:11:09;3.30;1.00
9410;DHT22;4744;52.576;13.568;2023-12-14T04:13:38;3.20;1.00
9410;DHT22;4744;52.576;13.568;2023-12-14T04:16:06;3.20;1.00
9410;DHT22;4744;52.576;13.568;2023-12-14T04:18:34;3.30;1.00
9410;DHT22;4744;52.576;13.568;2023-12-14T04:21:03;3.30;1.00
9410;DHT22;4744;52.576;13.568;2023-12-14T04:23:32;3.30;1.00
9410;DHT22;4744;52.576;13.568;2023-12-14T04:25:58;3.30;1.00
9410;DHT22;4744;52.576;13.568;2023-12-14T04:28:25;3.30;1.00
9410;DHT22;4744;52.576;13.568;2023-12-14T04:30:52;3.30;1.00
9410;DHT22;4744;52.576;13.568;2023-12-14T04:33:19;3.30;1.00
9410;DHT22;4744;52.576;13.568;2023-12-14T04:35:46;3.30;1.00
9410;DHT22;4744;52.576;13.568;2023-12-14T04:38:13;3.30;1.00
9410;DHT22;4744;52.576;13.568;2023-12-14T04:40:41;3.30;1.00
9410;DHT22;4744;52.576;13.568;2023-12-14T04:43:08;3.30;1.00
9410;DHT22;4744;52.576;13.568;2023-12-14T04:45:35;3.30;1.00
9410;DHT22;4744;52.576;13.568;2023-12-14T04:48:01;3.30;1.00
9410;DHT22;4744;52.576;13.568;2023-12-14T04:50:28;3.30;1.00
9410;DHT22;4744;52.576;13.568;2023-12-14T04:52:55;3.30;1.00
9410;DHT22;4744;52.576;13.568;2023-12-14T04:55:22;3.30;1.00
9410;DHT22;4744;52.576;13.568;2023-12-14T04:57:50;3.30;1.00
9410;DHT22;4744;52.576;13.568;2023-12-14T05:00:17;3.30;1.00
9410;DHT22;4744;52.576;13.568;2023-12-14T05:02:46;3.30;1.00
9410;DHT22;4744;52.576;13.568;2023-12-14T05:05:15;3.30;1.00
9410;DHT22;4744;52.576;13.568;2023-12-14T05:07:41;3.30;1.00
9410;DHT22;4744;52.576;13.568;2023-12-14T05:10:09;3.40;1.00
9410;DHT22;4744;52.576;13.568;2023-12-14T05:12:36;3.40;1.00
9410;DHT22;4744;52.576;13.568;2023-12-14T05:15:06;3.40;1.00
9410;DHT22;4744;52.576;13.568;2023-12-14T05:17:32;3.40;1.00
9410;DHT22;4744;52.576;13.568;2023-12-14T05:20:00;3.40;1.00
9410;DHT22;4744;52.576;13.568;2023-12-14T05:22:27;3.40;1.00
9410;DHT22;4744;52.576;13.568;2023-12-14T05:24:54;3.40;1.00
9410;DHT22;4744;52.576;13.568;2023-12-14T05:27:21;3.40;1.00
9410;DHT22;4744;52.576;13.568;2023-12-14T05:29:48;3.40;1.00
9410;DHT22;4744;52.576;13.568;2023-12-14T05:32:16;3.40;1.00
9410;DHT22;4744;52.576;13.568;2023-12-14T05:34:43;3.40;1.00
9410;DHT22;4744;52.576;13.568;2023-12-14T05:37:10;3.40;1.00
9410;DHT22;4744;52.576;13.568;2023-12-14T05:39:37;3.40;1.00
9410;DHT22;4744;52.576;13.568;2023-12-14T05:42:07;3.40;1.00
9410;DHT22;4744;52.576;13.568;2023-12-14T05:44:34;3.40;1.00
9410;DHT22;4744;52.576;13.568;2023-12-14T05:47:01;3.40;1.00
9410;DHT22;4744;52.576;13.568;2023-12-14T05:49:29;3.40;1.00
9410;DHT22;4744;52.576;13.568;2023-12-14T05:51:58;3.40;1.00
9410;DHT22;4744;52.576;13.568;2023-12-14T05:54:25;3.40;1.00
9410;DHT22;4744;52.576;13.568;2023-12-14T05:56:52;3.40;1.00
9410;DHT22;4744;52.576;13.568;2023-12-14T05:59:19;3.40;1.00
9410;DHT22;4744;52.576;13.568;2023-12-14T06:01:46;3.40;1.00
9410;DHT22;4744;52.576;13.568;2023-12-14T06:04:13;3.40;1.00
9410;DHT22;4744;52.576;13.568;2023-12-14T06:06:41;3.40;1.00
9410;DHT22;4744;52.576;13.568;2023-12-14T06:09:08;3.40;1.00
9410;DHT22;4744;52.576;13.568;2023-12-14T06:11:35;3.40;1.00
9410;DHT22;4744;52.576;13.568;2023-12-14T06:14:02;3.40;1.00
9410;DHT22;4744;52.576;13.568;2023-12-14T06:16:29;3.40;1.00
9410;DHT22;4744;52.576;13.568;2023-12-14T06:18:56;3.40;1.00
9410;DHT22;4744;52.576;13.568;2023-12-14T06:21:23;3.40;1.00
9410;DHT22;4744;52.576;13.568;2023-12-14T06:23:53;3.40;1.00
9410;DHT22;4744;52.576;13.568;2023-12-14T06:26:19;3.40;1.00
9410;DHT22;4744;52.576;13.568;2023-12-14T06:28:47;3.40;1.00
9410;DHT22;4744;52.576;13.568;2023-12-14T06:31:14;3.40;1.00
9410;DHT22;4744;52.576;13.568;2023-12-14T06:33:41;3.40;1.00
9410;DHT22;4744;52.576;13.568;2023-12-14T06:36:09;3.40;1.00
9410;DHT22;4744;52.576;13.568;2023-12-14T06:38:38;3.40;1.00
9410;DHT22;4744;52.576;13.568;2023-12-14T06:41:07;3.40;1.00
9410;DHT22;4744;52.576;13.568;2023-12-14T06:43:34;3.40;1.00
9410;DHT22;4744;52.576;13.568;2023-12-14T06:46:01;3.40;1.00
9410;DHT22;4744;52.576;13.568;2023-12-14T06:48:28;3.40;1.00
9410;DHT22;4744;52.576;13.568;2023-12-14T06:50:55;3.40;1.00
9410;DHT22;4744;52.576;13.568;2023-12-14T06:53:22;3.40;1.00
9410;DHT22;4744;52.576;13.568;2023-12-14T06:55:48;3.40;1.00
9410;DHT22;4744;52.576;13.568;2023-12-14T06:58:17;3.40;1.00
9410;DHT22;4744;52.576;13.568;2023-12-14T07:00:44;3.40;1.00
9410;DHT22;4744;52.576;13.568;2023-12-14T07:03:11;3.40;1.00
9410;DHT22;4744;52.576;13.568;2023-12-14T07:05:38;3.40;1.00
9410;DHT22;4744;52.576;13.568;2023-12-14T07:08:05;3.40;1.00
9410;DHT22;4744;52.576;13.568;2023-12-14T07:10:32;3.40;1.00
9410;DHT22;4744;52.576;13.568;2023-12-14T07:12:59;3.40;1.00
9410;DHT22;4744;52.576;13.568;2023-12-14T07:15:27;3.40;1.00
9410;DHT22;4744;52.576;13.568;2023-12-14T07:17:54;3.40;1.00
9410;DHT22;4744;52.576;13.568;2023-12-14T07:20:21;3.40;1.00
9410;DHT22;4744;52.576;13.568;2023-12-14T07:22:48;3.50;1.00
9410;DHT22;4744;52.576;13.568;2023-12-14T07:25:15;3.50;1.00
9410;DHT22;4744;52.576;13.568;2023-12-14T07:27:42;3.50;1.00
9410;DHT22;4744;52.576;13.568;2023-12-14T07:30:10;3.50;1.00
9410;DHT22;4744;52.576;13.568;2023-12-14T07:32:38;3.50;1.00
9410;DHT22;4744;52.576;13.568;2023-12-14T07:35:06;3.60;1.00
9410;DHT22;4744;52.576;13.568;2023-12-14T07:37:33;3.60;1.00
9410;DHT22;4744;52.576;13.568;2023-12-14T07:40:00;3.60;1.00
9410;DHT22;4744;52.576;13.568;2023-12-14T07:42:29;3.60;1.00
9410;DHT22;4744;52.576;13.568;2023-12-14T07:44:56;3.60;1.00
9410;DHT22;4744;52.576;13.568;2023-12-14T07:47:22;3.60;1.00
9410;DHT22;4744;52.576;13.568;2023-12-14T07:49:51;3.60;1.00
9410;DHT22;4744;52.576;13.568;2023-12-14T07:52:18;3.60;1.00
9410;DHT22;4744;52.576;13.568;2023-12-14T07:54:45;3.60;1.00
9410;DHT22;4744;52.576;13.568;2023-12-14T07:57:12;3.60;1.00
9410;DHT22;4744;52.576;13.568;2023-12-14T07:59:38;3.60;1.00
9410;DHT22;4744;52.576;13.568;2023-12-14T08:02:05;3.60;1.00
9410;DHT22;4744;52.576;13.568;2023-12-14T08:04:32;3.60;1.00
9410;DHT22;4744;52.576;13.568;2023-12-14T08:07:00;3.60;1.00
9410;DHT22;4744;52.576;13.568;2023-12-14T08:09:28;3.60;1.00
9410;DHT22;4744;52.576;13.568;2023-12-14T08:11:55;3.60;1.00
9410;DHT22;4744;52.576;13.568;2023-12-14T08:14:21;3.60;1.00
9410;DHT22;4744;52.576;13.568;2023-12-14T08:16:48;3.60;1.00
9410;DHT22;4744;52.576;13.568;2023-12-14T08:19:15;3.60;1.00
9410;DHT22;4744;52.576;13.568;2023-12-14T08:21:42;3.70;1.00
9410;DHT22;4744;52.576;13.568;2023-12-14T08:24:10;3.70;1.00
9410;DHT22;4744;52.576;13.568;2023-12-14T08:26:37;3.70;1.00
9410;DHT22;4744;52.576;13.568;2023-12-14T08:29:04;3.70;1.00
9410;DHT22;4744;52.576;13.568;2023-12-14T08:31:31;3.70;1.00
9410;DHT22;4744;52.576;13.568;2023-12-14T08:33:58;3.70;1.00
9410;DHT22;4744;52.576;13.568;2023-12-14T08:36:24;3.70;1.00
9410;DHT22;4744;52.576;13.568;2023-12-14T08:38:51;3.70;1.00
9410;DHT22;4744;52.576;13.568;2023-12-14T08:41:19;3.70;1.00
9410;DHT22;4744;52.576;13.568;2023-12-14T08:43:46;3.70;1.00
9410;DHT22;4744;52.576;13.568;2023-12-14T08:46:13;3.70;1.00
9410;DHT22;4744;52.576;13.568;2023-12-14T08:48:40;3.70;1.00
9410;DHT22;4744;52.576;13.568;2023-12-14T08:51:06;3.70;1.00
9410;DHT22;4744;52.576;13.568;2023-12-14T08:53:33;3.70;1.00
9410;DHT22;4744;52.576;13.568;2023-12-14T08:56:00;3.70;1.00
9410;DHT22;4744;52.576;13.568;2023-12-14T08:58:29;3.70;1.00
9410;DHT22;4744;52.576;13.568;2023-12-14T09:00:56;3.70;1.00
9410;DHT22;4744;52.576;13.568;2023-12-14T09:03:23;3.70;1.00
9410;DHT22;4744;52.576;13.568;2023-12-14T09:05:51;3.70;1.00
9410;DHT22;4744;52.576;13.568;2023-12-14T09:08:18;3.70;1.00
9410;DHT22;4744;52.576;13.568;2023-12-14T09:10:45;3.70;1.00
9410;DHT22;4744;52.576;13.568;2023-12-14T09:13:12;3.70;1.00
9410;DHT22;4744;52.576;13.568;2023-12-14T09:15:40;3.70;1.00
9410;DHT22;4744;52.576;13.568;2023-12-14T09:18:07;3.70;1.00
9410;DHT22;4744;52.576;13.568;2023-12-14T09:20:34;3.70;1.00
9410;DHT22;4744;52.576;13.568;2023-12-14T09:23:03;3.70;1.00
9410;DHT22;4744;52.576;13.568;2023-12-14T09:25:29;3.70;1.00
9410;DHT22;4744;52.576;13.568;2023-12-14T09:27:56;3.70;1.00
9410;DHT22;4744;52.576;13.568;2023-12-14T09:30:23;3.70;1.00
9410;DHT22;4744;52.576;13.568;2023-12-14T09:32:52;3.70;1.00
9410;DHT22;4744;52.576;13.568;2023-12-14T09:35:19;3.70;1.00
9410;DHT22;4744;52.576;13.568;2023-12-14T09:37:45;3.70;1.00
9410;DHT22;4744;52.576;13.568;2023-12-14T09:40:12;3.70;1.00
9410;DHT22;4744;52.576;13.568;2023-12-14T09:42:40;3.70;1.00
9410;DHT22;4744;52.576;13.568;2023-12-14T09:45:08;3.70;1.00
9410;DHT22;4744;52.576;13.568;2023-12-14T09:47:35;3.70;1.00
9410;DHT22;4744;52.576;13.568;2023-12-14T09:50:04;3.70;1.00
9410;DHT22;4744;52.576;13.568;2023-12-14T09:52:31;3.70;1.00
9410;DHT22;4744;52.576;13.568;2023-12-14T09:54:59;3.70;1.00
9410;DHT22;4744;52.576;13.568;2023-12-14T09:57:26;3.70;1.00
9410;DHT22;4744;52.576;13.568;2023-12-14T09:59:54;3.70;1.00
9410;DHT22;4744;52.576;13.568;2023-12-14T10:02:24;3.70;1.00
9410;DHT22;4744;52.576;13.568;2023-12-14T10:04:52;3.70;1.00
9410;DHT22;4744;52.576;13.568;2023-12-14T10:07:21;3.80;1.00
9410;DHT22;4744;52.576;13.568;2023-12-14T10:09:48;3.70;1.00
9410;DHT22;4744;52.576;13.568;2023-12-14T10:12:15;3.70;1.00
9410;DHT22;4744;52.576;13.568;2023-12-14T10:14:42;3.70;1.00
9410;DHT22;4744;52.576;13.568;2023-12-14T10:17:17;3.70;1.00
9410;DHT22;4744;52.576;13.568;2023-12-14T10:19:45;3.70;1.00
9410;DHT22;4744;52.576;13.568;2023-12-14T10:22:14;3.70;1.00
9410;DHT22;4744;52.576;13.568;2023-12-14T10:24:44;3.70;1.00
9410;DHT22;4744;52.576;13.568;2023-12-14T10:27:11;3.70;1.00
9410;DHT22;4744;52.576;13.568;2023-12-14T10:29:40;3.70;1.00
9410;DHT22;4744;52.576;13.568;2023-12-14T10:32:07;3.70;1.00
9410;DHT22;4744;52.576;13.568;2023-12-14T10:34:36;3.70;1.00
9410;DHT22;4744;52.576;13.568;2023-12-14T10:37:05;3.70;1.00
9410;DHT22;4744;52.576;13.568;2023-12-14T10:39:33;3.70;1.00
9410;DHT22;4744;52.576;13.568;2023-12-14T10:42:03;3.70;1.00
9410;DHT22;4744;52.576;13.568;2023-12-14T10:44:32;3.70;1.00
9410;DHT22;4744;52.576;13.568;2023-12-14T10:47:02;3.80;1.00
9410;DHT22;4744;52.576;13.568;2023-12-14T10:49:31;3.80;1.00
9410;DHT22;4744;52.576;13.568;2023-12-14T10:52:00;3.80;1.00
9410;DHT22;4744;52.576;13.568;2023-12-14T10:54:31;3.80;1.00
9410;DHT22;4744;52.576;13.568;2023-12-14T10:57:00;3.80;1.00
9410;DHT22;4744;52.576;13.568;2023-12-14T10:59:30;3.80;1.00
9410;DHT22;4744;52.576;13.568;2023-12-14T11:01:57;3.90;1.00
9410;DHT22;4744;52.576;13.568;2023-12-14T11:04:26;3.90;1.00
9410;DHT22;4744;52.576;13.568;2023-12-14T11:06:53;3.90;1.00
9410;DHT22;4744;52.576;13.568;2023-12-14T11:09:22;3.90;1.00
9410;DHT22;4744;52.576;13.568;2023-12-14T11:11:55;3.90;1.00
9410;DHT22;4744;52.576;13.568;2023-12-14T11:14:25;3.90;1.00
9410;DHT22;4744;52.576;13.568;2023-12-14T11:16:56;3.90;1.00
9410;DHT22;4744;52.576;13.568;2023-12-14T11:19:30;3.90;1.00
9410;DHT22;4744;52.576;13.568;2023-12-14T11:22:13;3.90;1.00
9410;DHT22;4744;52.576;13.568;2023-12-14T11:24:53;4.00;1.00
9410;DHT22;4744;52.576;13.568;2023-12-14T11:27:30;4.00;1.00
9410;DHT22;4744;52.576;13.568;2023-12-14T11:29:57;4.00;1.00
9410;DHT22;4744;52.576;13.568;2023-12-14T11:32:26;4.00;1.00
9410;DHT22;4744;52.576;13.568;2023-12-14T11:34:55;4.10;1.00
9410;DHT22;4744;52.576;13.568;2023-12-14T11:37:22;4.10;1.00
9410;DHT22;4744;52.576;13.568;2023-12-14T11:39:50;4.10;1.00
9410;DHT22;4744;52.576;13.568;2023-12-14T11:42:19;4.20;1.00
9410;DHT22;4744;52.576;13.568;2023-12-14T11:44:45;4.20;1.00
9410;DHT22;4744;52.576;13.568;2023-12-14T11:47:13;4.20;1.00
9410;DHT22;4744;52.576;13.568;2023-12-14T11:49:42;4.20;1.00
9410;DHT22;4744;52.576;13.568;2023-12-14T11:52:10;4.20;1.00
9410;DHT22;4744;52.576;13.568;2023-12-14T11:54:37;4.20;1.00
9410;DHT22;4744;52.576;13.568;2023-12-14T11:57:04;4.20;1.00
9410;DHT22;4744;52.576;13.568;2023-12-14T11:59:35;4.20;1.00
9410;DHT22;4744;52.576;13.568;2023-12-14T12:02:03;4.20;1.00
9410;DHT22;4744;52.576;13.568;2023-12-14T12:04:30;4.10;1.00
9410;DHT22;4744;52.576;13.568;2023-12-14T12:07:03;4.10;1.00
9410;DHT22;4744;52.576;13.568;2023-12-14T12:09:37;4.10;1.00
9410;DHT22;4744;52.576;13.568;2023-12-14T12:12:08;4.10;1.00
9410;DHT22;4744;52.576;13.568;2023-12-14T12:14:35;4.10;1.00
9410;DHT22;4744;52.576;13.568;2023-12-14T12:17:03;4.00;1.00
9410;DHT22;4744;52.576;13.568;2023-12-14T12:19:32;4.10;1.00
9410;DHT22;4744;52.576;13.568;2023-12-14T12:21:59;4.00;1.00
9410;DHT22;4744;52.576;13.568;2023-12-14T12:24:28;4.00;1.00
9410;DHT22;4744;52.576;13.568;2023-12-14T12:26:55;4.00;1.00
9410;DHT22;4744;52.576;13.568;2023-12-14T12:29:22;4.00;1.00
9410;DHT22;4744;52.576;13.568;2023-12-14T12:31:49;4.00;1.00
9410;DHT22;4744;52.576;13.568;2023-12-14T12:34:17;4.00;1.00
9410;DHT22;4744;52.576;13.568;2023-12-14T12:36:44;4.00;1.00
9410;DHT22;4744;52.576;13.568;2023-12-14T12:39:11;4.00;1.00
9410;DHT22;4744;52.576;13.568;2023-12-14T12:41:39;4.00;1.00
9410;DHT22;4744;52.576;13.568;2023-12-14T12:44:06;4.00;1.00
9410;DHT22;4744;52.576;13.568;2023-12-14T12:46:34;4.00;1.00
9410;DHT22;4744;52.576;13.568;2023-12-14T12:49:02;3.90;1.00
9410;DHT22;4744;52.576;13.568;2023-12-14T12:51:29;3.90;1.00
9410;DHT22;4744;52.576;13.568;2023-12-14T12:53:58;3.90;1.00
9410;DHT22;4744;52.576;13.568;2023-12-14T12:56:26;3.90;1.00
9410;DHT22;4744;52.576;13.568;2023-12-14T12:58:54;3.90;1.00
9410;DHT22;4744;52.576;13.568;2023-12-14T13:01:21;3.90;1.00
9410;DHT22;4744;52.576;13.568;2023-12-14T13:03:52;3.80;1.00
9410;DHT22;4744;52.576;13.568;2023-12-14T13:06:20;3.80;1.00
9410;DHT22;4744;52.576;13.568;2023-12-14T13:08:47;3.80;1.00
9410;DHT22;4744;52.576;13.568;2023-12-14T13:11:13;3.80;1.00
9410;DHT22;4744;52.576;13.568;2023-12-14T13:13:40;3.80;1.00
9410;DHT22;4744;52.576;13.568;2023-12-14T13:16:10;3.80;1.00
9410;DHT22;4744;52.576;13.568;2023-12-14T13:18:39;3.80;1.00
9410;DHT22;4744;52.576;13.568;2023-12-14T13:21:07;3.80;1.00
9410;DHT22;4744;52.576;13.568;2023-12-14T13:23:34;3.80;1.00
9410;DHT22;4744;52.576;13.568;2023-12-14T13:26:01;3.80;1.00
9410;DHT22;4744;52.576;13.568;2023-12-14T13:28:27;3.80;1.00
9410;DHT22;4744;52.576;13.568;2023-12-14T13:30:54;3.80;1.00
9410;DHT22;4744;52.576;13.568;2023-12-14T13:33:22;3.80;1.00
9410;DHT22;4744;52.576;13.568;2023-12-14T13:35:49;3.90;1.00
9410;DHT22;4744;52.576;13.568;2023-12-14T13:38:16;3.90;1.00
9410;DHT22;4744;52.576;13.568;2023-12-14T13:40:43;3.90;1.00
9410;DHT22;4744;52.576;13.568;2023-12-14T13:43:10;3.90;1.00
9410;DHT22;4744;52.576;13.568;2023-12-14T13:45:38;3.90;1.00
9410;DHT22;4744;52.576;13.568;2023-12-14T13:48:05;3.90;1.00
9410;DHT22;4744;52.576;13.568;2023-12-14T13:50:35;3.90;1.00
9410;DHT22;4744;52.576;13.568;2023-12-14T13:53:02;3.90;1.00
9410;DHT22;4744;52.576;13.568;2023-12-14T13:55:30;3.80;1.00
9410;DHT22;4744;52.576;13.568;2023-12-14T13:57:57;3.80;1.00
9410;DHT22;4744;52.576;13.568;2023-12-14T14:00:26;3.90;1.00
9410;DHT22;4744;52.576;13.568;2023-12-14T14:02:52;3.80;1.00
9410;DHT22;4744;52.576;13.568;2023-12-14T14:05:20;3.80;1.00
9410;DHT22;4744;52.576;13.568;2023-12-14T14:07:48;3.80;1.00
9410;DHT22;4744;52.576;13.568;2023-12-14T14:10:15;3.80;1.00
9410;DHT22;4744;52.576;13.568;2023-12-14T14:12:42;3.80;1.00
9410;DHT22;4744;52.576;13.568;2023-12-14T14:15:09;3.80;1.00
9410;DHT22;4744;52.576;13.568;2023-12-14T14:17:36;3.80;1.00
9410;DHT22;4744;52.576;13.568;2023-12-14T14:20:03;3.80;1.00
9410;DHT22;4744;52.576;13.568;2023-12-14T14:22:32;3.80;1.00
9410;DHT22;4744;52.576;13.568;2023-12-14T14:25:00;3.70;1.00
9410;DHT22;4744;52.576;13.568;2023-12-14T14:27:27;3.70;1.00
9410;DHT22;4744;52.576;13.568;2023-12-14T14:29:55;3.80;1.00
9410;DHT22;4744;52.576;13.568;2023-12-14T14:32:21;3.80;1.00
9410;DHT22;4744;52.576;13.568;2023-12-14T14:34:48;3.80;1.00
9410;DHT22;4744;52.576;13.568;2023-12-14T14:37:16;3.80;1.00
9410;DHT22;4744;52.576;13.568;2023-12-14T14:39:43;3.70;1.00
9410;DHT22;4744;52.576;13.568;2023-12-14T14:42:11;3.70;1.00
9410;DHT22;4744;52.576;13.568;2023-12-14T14:44:39;3.70;1.00
9410;DHT22;4744;52.576;13.568;2023-12-14T14:47:06;3.70;1.00
9410;DHT22;4744;52.576;13.568;2023-12-14T14:49:33;3.80;1.00
9410;DHT22;4744;52.576;13.568;2023-12-14T14:52:00;3.80;1.00
9410;DHT22;4744;52.576;13.568;2023-12-14T14:54:26;3.80;1.00
9410;DHT22;4744;52.576;13.568;2023-12-14T14:56:53;3.80;1.00
9410;DHT22;4744;52.576;13.568;2023-12-14T14:59:22;3.80;1.00
9410;DHT22;4744;52.576;13.568;2023-12-14T15:01:48;3.80;1.00
9410;DHT22;4744;52.576;13.568;2023-12-14T15:04:16;3.80;1.00
9410;DHT22;4744;52.576;13.568;2023-12-14T15:06:43;3.80;1.00
9410;DHT22;4744;52.576;13.568;2023-12-14T15:09:10;3.80;1.00
9410;DHT22;4744;52.576;13.568;2023-12-14T15:11:38;3.80;1.00
9410;DHT22;4744;52.576;13.568;2023-12-14T15:14:05;3.70;1.00
9410;DHT22;4744;52.576;13.568;2023-12-14T15:16:33;3.70;1.00
9410;DHT22;4744;52.576;13.568;2023-12-14T15:19:01;3.70;1.00
9410;DHT22;4744;52.576;13.568;2023-12-14T15:21:28;3.70;1.00
9410;DHT22;4744;52.576;13.568;2023-12-14T15:23:55;3.70;1.00
9410;DHT22;4744;52.576;13.568;2023-12-14T15:26:22;3.70;1.00
9410;DHT22;4744;52.576;13.568;2023-12-14T15:28:49;3.70;1.00
9410;DHT22;4744;52.576;13.568;2023-12-14T15:31:16;3.70;1.00
9410;DHT22;4744;52.576;13.568;2023-12-14T15:33:44;3.70;1.00
9410;DHT22;4744;52.576;13.568;2023-12-14T15:36:12;3.70;1.00
9410;DHT22;4744;52.576;13.568;2023-12-14T15:38:39;3.60;1.00
9410;DHT22;4744;52.576;13.568;2023-12-14T15:41:10;3.60;1.00
9410;DHT22;4744;52.576;13.568;2023-12-14T15:43:38;3.60;1.00
9410;DHT22;4744;52.576;13.568;2023-12-14T15:46:05;3.60;1.00
9410;DHT22;4744;52.576;13.568;2023-12-14T15:48:32;3.60;1.00
9410;DHT22;4744;52.576;13.568;2023-12-14T15:51:02;3.60;1.00
9410;DHT22;4744;52.576;13.568;2023-12-14T15:53:29;3.60;1.00
9410;DHT22;4744;52.576;13.568;2023-12-14T15:55:57;3.60;1.00
9410;DHT22;4744;52.576;13.568;2023-12-14T15:58:24;3.60;1.00
9410;DHT22;4744;52.576;13.568;2023-12-14T16:00:50;3.60;1.00
9410;DHT22;4744;52.576;13.568;2023-12-14T16:03:17;3.60;1.00
9410;DHT22;4744;52.576;13.568;2023-12-14T16:05:44;3.60;1.00
9410;DHT22;4744;52.576;13.568;2023-12-14T16:08:13;3.60;1.00
9410;DHT22;4744;52.576;13.568;2023-12-14T16:10:40;3.50;1.00
9410;DHT22;4744;52.576;13.568;2023-12-14T16:13:10;3.60;1.00
9410;DHT22;4744;52.576;13.568;2023-12-14T16:15:37;3.50;1.00
9410;DHT22;4744;52.576;13.568;2023-12-14T16:18:04;3.60;1.00